Time;durP1;ratioP1;P1;durP2;ratioP2;P2;SDS_P1;SDS_P2;PMS_P1;PMS_P2;Temp;Humidity;BMP_temperature;BMP_pressure;BME280_temperature;BME280_humidity;BME280_pressure;Samples;Min_cycle;Max_cycle;Signal;HPM_P1;HPM_P2
2022/08/06 00:00:45;;;;;;;11.23;4.57;;;21.10;73.50;;;;;;5061772;28;20328;-80
2022/08/06 00:03:10;;;;;;;10.40;4.63;;;21.10;73.80;;;;;;5061661;28;20089;-80
2022/08/06 00:05:38;;;;;;;10.93;5.32;;;20.40;73.30;;;;;;5061479;28;20623;-80
2022/08/06 00:08:04;;;;;;;8.80;4.68;;;21.00;74.20;;;;;;5061367;28;20344;-79
2022/08/06 00:10:30;;;;;;;8.68;4.47;;;20.90;74.60;;;;;;5061404;28;20032;-80
2022/08/06 00:12:58;;;;;;;9.30;4.78;;;20.90;74.50;;;;;;5061048;28;20074;-80
2022/08/06 00:15:24;;;;;;;7.43;4.40;;;20.90;75.20;;;;;;5061869;28;20518;-80
2022/08/06 00:17:50;;;;;;;8.02;4.60;;;20.90;75.30;;;;;;5061576;28;20104;-80
2022/08/06 00:20:17;;;;;;;7.85;4.32;;;20.90;75.30;;;;;;5061501;28;20025;-81
2022/08/06 00:22:43;;;;;;;8.45;4.70;;;20.80;75.40;;;;;;5061339;28;20313;-81
2022/08/06 00:25:12;;;;;;;8.00;4.35;;;20.80;76.70;;;;;;5061082;28;20009;-79
2022/08/06 00:27:38;;;;;;;10.27;4.75;;;20.70;76.50;;;;;;5059560;28;20576;-80
2022/08/06 00:30:06;;;;;;;9.35;4.78;;;20.70;76.20;;;;;;5058979;28;20028;-80
2022/08/06 00:32:32;;;;;;;7.60;4.15;;;20.60;76.60;;;;;;5058672;28;20060;-80
2022/08/06 00:34:58;;;;;;;12.45;4.78;;;20.60;76.90;;;;;;5060062;28;20098;-80
2022/08/06 00:37:24;;;;;;;8.57;5.25;;;20.50;77.40;;;;;;5058586;28;20028;-80
2022/08/06 00:39:50;;;;;;;8.10;4.72;;;20.50;77.70;;;;;;5059962;28;20017;-80
2022/08/06 00:42:16;;;;;;;12.10;5.15;;;20.40;78.50;;;;;;5059042;28;20090;-79
2022/08/06 00:44:41;;;;;;;8.98;4.20;;;20.50;78.00;;;;;;5060006;28;20023;-80
2022/08/06 00:47:07;;;;;;;9.32;4.43;;;20.50;77.90;;;;;;5059773;28;20036;-80
2022/08/06 00:49:33;;;;;;;8.65;4.78;;;20.30;78.10;;;;;;5059875;28;20040;-80
2022/08/06 00:51:59;;;;;;;9.43;4.18;;;19.20;77.90;;;;;;5058822;28;20020;-80
2022/08/06 00:54:24;;;;;;;9.95;4.88;;;20.50;79.10;;;;;;5059864;28;20051;-80
2022/08/06 00:56:50;;;;;;;10.57;5.10;;;20.40;79.50;;;;;;5059794;28;20643;-80
2022/08/06 00:59:16;;;;;;;15.82;6.78;;;20.40;79.30;;;;;;5060099;28;20422;-80
2022/08/06 01:01:42;;;;;;;12.57;5.57;;;20.40;79.40;;;;;;5058027;28;20461;-81
2022/08/06 01:04:07;;;;;;;9.75;4.72;;;20.30;79.60;;;;;;5059529;28;20631;-80
2022/08/06 01:06:33;;;;;;;8.18;4.65;;;20.30;80.10;;;;;;5059720;28;20031;-80
2022/08/06 01:08:59;;;;;;;8.85;4.47;;;20.30;80.50;;;;;;5059131;28;20119;-78
2022/08/06 01:11:27;;;;;;;11.80;4.72;;;21.90;81.50;;;;;;5058580;28;20017;-79
2022/08/06 01:13:53;;;;;;;9.30;4.53;;;20.20;81.10;;;;;;5059160;28;20050;-80
2022/08/06 01:16:29;;;;;;;6.75;4.10;;;20.40;82.50;;;;;;5058838;28;20021;-79
2022/08/06 01:18:58;;;;;;;12.10;5.10;;;20.10;81.50;;;;;;5059177;28;20315;-80
2022/08/06 01:21:59;;;;;;;9.70;4.90;;;20.10;82.20;;;;;;5058921;28;20031;-80
2022/08/06 01:24:49;;;;;;;10.48;5.30;;;20.00;82.30;;;;;;4979660;28;20026;-81
2022/08/06 01:27:37;;;;;;;9.98;5.30;;;20.00;83.20;;;;;;4979763;28;20053;-79
2022/08/06 01:30:09;;;;;;;7.43;4.68;;;20.00;83.10;;;;;;4996095;28;20056;-80
2022/08/06 01:32:50;;;;;;;8.40;4.97;;;19.90;83.30;;;;;;4980079;28;20448;-79
2022/08/06 01:35:26;;;;;;;10.85;4.78;;;19.90;83.60;;;;;;4995898;28;20234;-79
2022/08/06 01:38:07;;;;;;;11.45;4.45;;;19.90;84.50;;;;;;4996293;28;20022;-81
2022/08/06 01:40:37;;;;;;;9.48;4.32;;;19.90;84.60;;;;;;4996388;28;20460;-80
2022/08/06 01:43:09;;;;;;;8.32;4.45;;;19.80;85.10;;;;;;4996319;28;20335;-80
2022/08/06 01:45:40;;;;;;;8.95;4.32;;;19.80;85.10;;;;;;4996418;28;20068;-80
2022/08/06 01:48:11;;;;;;;8.05;4.38;;;19.80;85.90;;;;;;4979723;28;20362;-79
2022/08/06 01:50:41;;;;;;;9.80;4.43;;;19.80;85.90;;;;;;4996624;28;20050;-81
2022/08/06 01:53:11;;;;;;;8.93;4.93;;;19.80;86.30;;;;;;4996576;28;20501;-80
2022/08/06 01:55:41;;;;;;;9.52;4.25;;;19.70;86.40;;;;;;4996654;28;20038;-81
2022/08/06 01:58:09;;;;;;;8.07;3.88;;;19.70;86.70;;;;;;4995976;28;20109;-80
2022/08/06 02:00:38;;;;;;;8.20;4.03;;;19.70;87.40;;;;;;5001852;28;20049;-80
2022/08/06 02:03:10;;;;;;;8.35;3.95;;;19.60;87.70;;;;;;5057055;28;20550;-79
2022/08/06 02:05:38;;;;;;;7.43;4.00;;;19.60;88.30;;;;;;5057045;28;20032;-79
2022/08/06 02:08:06;;;;;;;10.70;4.97;;;19.20;88.70;;;;;;5063441;28;20506;-79
2022/08/06 02:10:35;;;;;;;9.40;4.45;;;19.50;89.70;;;;;;5076445;28;20084;-80
2022/08/06 02:13:03;;;;;;;8.15;4.10;;;19.40;89.60;;;;;;5075578;28;20017;-80
2022/08/06 02:15:32;;;;;;;10.77;4.97;;;19.40;90.20;;;;;;5075685;28;20025;-80
2022/08/06 02:18:01;;;;;;;8.73;3.72;;;19.30;90.20;;;;;;5075871;28;20108;-81
2022/08/06 02:20:32;;;;;;;7.50;3.75;;;19.30;90.60;;;;;;5070414;28;20146;-80
2022/08/06 02:23:01;;;;;;;8.15;4.15;;;19.20;90.80;;;;;;5066278;28;20042;-82
2022/08/06 02:25:28;;;;;;;9.25;4.90;;;19.20;91.00;;;;;;5067005;28;20096;-81
2022/08/06 02:27:59;;;;;;;9.15;4.40;;;19.00;90.90;;;;;;5065838;28;20029;-79
2022/08/06 02:30:29;;;;;;;9.45;4.70;;;19.40;91.50;;;;;;5065078;28;20037;-80
2022/08/06 02:32:54;;;;;;;7.82;4.03;;;19.00;91.90;;;;;;5059848;28;20483;-81
2022/08/06 02:35:20;;;;;;;10.40;5.20;;;19.00;92.10;;;;;;5059322;28;20032;-80
2022/08/06 02:37:53;;;;;;;8.90;4.22;;;18.80;92.40;;;;;;5060040;28;20021;-80
2022/08/06 02:40:43;;;;;;;8.63;4.53;;;18.80;92.90;;;;;;5059619;28;20021;-80
2022/08/06 02:43:40;;;;;;;8.73;3.83;;;18.70;92.90;;;;;;5060499;28;20893;-79
2022/08/06 02:46:25;;;;;;;8.95;3.88;;;18.70;93.20;;;;;;4980787;28;20675;-80
2022/08/06 02:48:58;;;;;;;8.13;3.72;;;18.60;93.70;;;;;;4999734;28;20042;-81
2022/08/06 02:51:32;;;;;;;9.52;5.00;;;18.70;93.90;;;;;;4997314;28;20040;-81
2022/08/06 02:54:09;;;;;;;8.20;3.78;;;18.60;93.90;;;;;;4979659;28;20521;-81
2022/08/06 02:56:40;;;;;;;8.20;4.63;;;18.60;94.00;;;;;;4994996;28;20212;-81
2022/08/06 02:59:11;;;;;;;7.78;4.20;;;18.60;94.20;;;;;;4995316;28;20105;-79
2022/08/06 03:01:44;;;;;;;8.60;4.80;;;18.50;94.50;;;;;;4995190;28;20270;-80
2022/08/06 03:04:14;;;;;;;10.70;4.15;;;18.40;94.70;;;;;;4978637;28;20121;-80
2022/08/06 03:06:42;;;;;;;8.55;4.40;;;18.40;94.90;;;;;;4995441;28;20030;-80
2022/08/06 03:09:10;;;;;;;9.93;4.28;;;18.40;95.00;;;;;;4994786;28;20053;-79
2022/08/06 03:11:36;;;;;;;7.45;3.78;;;;;;;;;;4977855;28;20489;-81
2022/08/06 03:14:04;;;;;;;7.85;4.38;;;18.30;94.90;;;;;;4995173;28;20034;-80
2022/08/06 03:16:34;;;;;;;7.93;4.20;;;18.40;95.30;;;;;;4979028;28;20378;-80
2022/08/06 03:19:01;;;;;;;8.48;4.45;;;18.40;95.20;;;;;;4978287;28;20168;-81
2022/08/06 03:21:29;;;;;;;7.43;3.80;;;18.30;95.10;;;;;;4998878;28;20164;-81
2022/08/06 03:23:58;;;;;;;10.13;4.57;;;18.30;95.40;;;;;;5057590;28;20127;-80
2022/08/06 03:26:28;;;;;;;9.50;4.55;;;18.30;95.50;;;;;;5056986;28;20040;-80
2022/08/06 03:29:00;;;;;;;7.03;4.10;;;18.20;95.60;;;;;;5057272;28;20043;-80
2022/08/06 03:31:27;;;;;;;8.07;4.35;;;18.20;95.80;;;;;;5057197;28;20024;-81
2022/08/06 03:33:53;;;;;;;8.30;4.63;;;18.20;95.70;;;;;;5059378;28;20020;-80
2022/08/06 03:36:22;;;;;;;8.38;4.65;;;18.20;95.70;;;;;;5059559;28;20021;-80
2022/08/06 03:39:01;;;;;;;8.15;4.13;;;18.20;95.80;;;;;;5061287;28;20328;-80
2022/08/06 03:41:29;;;;;;;7.10;3.90;;;18.20;95.50;;;;;;5061083;28;20224;-79
2022/08/06 03:43:56;;;;;;;7.70;3.75;;;;;;;;;;5061129;28;20617;-78
2022/08/06 03:46:27;;;;;;;11.25;4.93;;;18.20;95.50;;;;;;5060873;28;20029;-80
2022/08/06 03:48:56;;;;;;;7.10;3.88;;;18.20;96.00;;;;;;5060785;28;20033;-79
2022/08/06 03:51:29;;;;;;;8.55;4.75;;;18.10;95.90;;;;;;5061324;28;20292;-79
2022/08/06 03:53:59;;;;;;;10.15;4.72;;;18.10;96.00;;;;;;5061244;28;20415;-80
2022/08/06 03:56:28;;;;;;;8.02;4.57;;;18.10;96.30;;;;;;5061011;28;20036;-80
2022/08/06 03:58:56;;;;;;;8.65;4.53;;;18.00;96.20;;;;;;5061403;28;20086;-81
2022/08/06 04:01:26;;;;;;;8.48;4.30;;;18.10;96.20;;;;;;5059242;28;20028;-80
2022/08/06 04:03:52;;;;;;;8.45;4.22;;;18.00;96.40;;;;;;5060186;28;20031;-79
2022/08/06 04:06:20;;;;;;;7.65;3.95;;;18.00;96.40;;;;;;5061021;28;20115;-82
2022/08/06 04:08:47;;;;;;;9.05;4.63;;;18.00;96.30;;;;;;5060504;28;20017;-80
2022/08/06 04:11:15;;;;;;;8.40;4.30;;;18.00;96.50;;;;;;5060085;28;20545;-82
2022/08/06 04:13:43;;;;;;;9.10;4.47;;;18.00;96.30;;;;;;5060371;28;20017;-80
2022/08/06 04:16:12;;;;;;;8.80;4.45;;;18.00;96.40;;;;;;5060010;28;20026;-80
2022/08/06 04:18:40;;;;;;;10.75;4.30;;;18.00;96.30;;;;;;5058784;28;20678;-78
2022/08/06 04:21:15;;;;;;;11.10;6.22;;;18.10;96.50;;;;;;5060411;28;20438;-82
2022/08/06 04:23:41;;;;;;;12.52;5.65;;;18.00;96.30;;;;;;5059143;28;20012;-82
2022/08/06 04:26:08;;;;;;;16.30;8.88;;;18.10;96.40;;;;;;5060061;28;20048;-80
2022/08/06 04:28:40;;;;;;;12.00;6.68;;;18.10;96.40;;;;;;5059957;28;20032;-81
2022/08/06 04:31:08;;;;;;;11.82;6.30;;;18.00;96.40;;;;;;5060130;28;20024;-82
2022/08/06 04:33:35;;;;;;;11.00;4.45;;;18.00;96.30;;;;;;5060268;28;20093;-82
2022/08/06 04:36:06;;;;;;;9.57;5.07;;;18.10;96.50;;;;;;5058773;28;20119;-85
2022/08/06 04:38:36;;;;;;;8.25;4.32;;;18.10;96.50;;;;;;5058756;28;20033;-82
2022/08/06 04:41:05;;;;;;;8.68;4.10;;;18.10;96.50;;;;;;5059827;28;20307;-81
2022/08/06 04:43:32;;;;;;;14.23;5.05;;;18.10;96.60;;;;;;5060016;28;20394;-80
2022/08/06 04:45:59;;;;;;;7.07;3.83;;;18.00;96.80;;;;;;5058819;28;20612;-82
2022/08/06 04:48:26;;;;;;;8.10;4.45;;;18.10;96.50;;;;;;5059584;28;20036;-82
2022/08/06 04:50:52;;;;;;;8.90;4.18;;;17.40;96.20;;;;;;5057802;28;20032;-82
2022/08/06 04:53:19;;;;;;;9.82;5.00;;;18.30;96.40;;;;;;5060026;28;20441;-81
2022/08/06 04:55:47;;;;;;;8.88;4.05;;;18.30;96.60;;;;;;5057859;28;20499;-81
2022/08/06 04:58:15;;;;;;;8.52;4.80;;;18.40;96.40;;;;;;5059791;28;20209;-82
2022/08/06 05:00:44;;;;;;;7.90;4.45;;;18.40;96.40;;;;;;5059991;28;20021;-82
2022/08/06 05:03:10;;;;;;;11.70;5.10;;;18.40;96.20;;;;;;5058259;28;20307;-81
2022/08/06 05:05:50;;;;;;;12.38;6.10;;;18.40;96.20;;;;;;5058185;28;20020;-81
2022/08/06 05:08:18;;;;;;;19.40;11.10;;;18.50;96.00;;;;;;5057907;28;20025;-82
2022/08/06 05:11:21;;;;;;;28.25;14.13;;;17.40;95.70;;;;;;5059696;28;20508;-82
2022/08/06 05:13:54;;;;;;;28.75;11.18;;;18.70;95.80;;;;;;5059366;28;20109;-81
2022/08/06 05:16:21;;;;;;;13.30;7.38;;;18.70;95.80;;;;;;5059008;28;20666;-81
2022/08/06 05:18:53;;;;;;;10.82;5.97;;;18.80;95.60;;;;;;5057678;28;20186;-82
2022/08/06 05:21:25;;;;;;;13.50;5.53;;;18.90;95.60;;;;;;5058908;28;20472;-82
2022/08/06 05:23:53;;;;;;;15.27;5.50;;;19.00;95.60;;;;;;5057724;28;20506;-81
2022/08/06 05:26:20;;;;;;;10.90;4.32;;;19.10;95.50;;;;;;5058438;28;20390;-82
2022/08/06 05:28:46;;;;;;;8.68;4.90;;;19.20;95.20;;;;;;5059188;28;20033;-81
2022/08/06 05:31:12;;;;;;;10.68;5.43;;;19.40;95.10;;;;;;5059334;28;20032;-82
2022/08/06 05:33:39;;;;;;;8.35;4.80;;;19.40;94.80;;;;;;5057649;28;20035;-82
2022/08/06 05:36:14;;;;;;;8.68;4.47;;;19.40;94.80;;;;;;5058851;28;20016;-83
2022/08/06 05:38:40;;;;;;;9.63;5.05;;;19.50;94.60;;;;;;5058982;28;20027;-81
2022/08/06 05:41:08;;;;;;;9.30;4.80;;;19.60;94.60;;;;;;5057268;28;20036;-82
2022/08/06 05:43:36;;;;;;;9.77;5.38;;;19.70;94.50;;;;;;5058613;28;20025;-82
2022/08/06 05:46:08;;;;;;;9.13;5.05;;;19.80;94.40;;;;;;5057113;28;20190;-82
2022/08/06 05:48:42;;;;;;;8.35;4.95;;;19.90;94.40;;;;;;5058548;28;20067;-82
2022/08/06 05:51:18;;;;;;;10.77;5.13;;;20.60;94.50;;;;;;5057132;28;20272;-81
2022/08/06 05:53:50;;;;;;;10.07;5.40;;;20.20;94.30;;;;;;5058704;28;20299;-80
2022/08/06 05:56:31;;;;;;;10.15;5.13;;;18.90;93.90;;;;;;5058141;28;20013;-82
2022/08/06 05:59:03;;;;;;;11.02;5.30;;;20.30;93.90;;;;;;5057483;28;20557;-81
2022/08/06 06:01:32;;;;;;;11.25;5.03;;;20.40;93.90;;;;;;5060359;28;20103;-80
2022/08/06 06:03:58;;;;;;;12.18;5.60;;;20.50;93.60;;;;;;5058963;28;20052;-80
2022/08/06 06:06:26;;;;;;;10.27;4.90;;;20.60;93.30;;;;;;5062223;28;20209;-80
2022/08/06 06:08:52;;;;;;;11.55;5.38;;;20.70;93.30;;;;;;5063586;28;20047;-79
2022/08/06 06:11:19;;;;;;;12.07;5.93;;;20.80;93.10;;;;;;5060726;28;20078;-80
2022/08/06 06:13:46;;;;;;;8.40;5.00;;;20.80;93.10;;;;;;5058892;28;20099;-80
2022/08/06 06:16:22;;;;;;;8.77;4.38;;;21.00;92.90;;;;;;5058052;28;20037;-81
2022/08/06 06:18:54;;;;;;;12.45;5.93;;;22.50;93.10;;;;;;5057852;28;20048;-80
2022/08/06 06:21:50;;;;;;;11.52;6.13;;;21.10;92.70;;;;;;5057958;28;20033;-79
2022/08/06 06:24:30;;;;;;;11.65;5.05;;;21.20;92.40;;;;;;5057607;28;20040;-81
2022/08/06 06:27:44;;;;;;;12.48;6.82;;;21.50;92.20;;;;;;5057539;28;20048;-81
2022/08/06 06:30:30;;;;;;;12.52;6.40;;;21.60;91.90;;;;;;5057959;28;20058;-82
2022/08/06 06:33:17;;;;;;;13.10;7.13;;;21.70;91.60;;;;;;5057804;28;20086;-82
2022/08/06 06:35:53;;;;;;;19.13;7.00;;;21.90;91.40;;;;;;5057496;28;20021;-82
2022/08/06 06:38:46;;;;;;;8.95;5.95;;;22.00;91.20;;;;;;5057988;28;20338;-81
2022/08/06 06:41:21;;;;;;;9.73;5.93;;;22.20;90.90;;;;;;5057383;28;20040;-82
2022/08/06 06:44:11;;;;;;;10.27;6.28;;;22.40;90.70;;;;;;5057764;28;20025;-81
2022/08/06 06:46:59;;;;;;;11.32;6.28;;;22.50;90.50;;;;;;5056075;28;20036;-80
2022/08/06 06:49:37;;;;;;;9.68;5.93;;;22.70;90.10;;;;;;5057452;28;20079;-79
2022/08/06 06:52:15;;;;;;;10.52;6.25;;;22.90;89.50;;;;;;5057245;28;20350;-82
2022/08/06 06:54:48;;;;;;;10.90;5.65;;;23.00;89.30;;;;;;5056254;28;20024;-81
2022/08/06 06:57:20;;;;;;;9.60;5.45;;;23.00;88.60;;;;;;5057490;28;20023;-81
2022/08/06 06:59:51;;;;;;;10.95;5.97;;;23.20;87.70;;;;;;5056200;28;20093;-81
2022/08/06 07:02:22;;;;;;;14.10;6.13;;;23.30;87.10;;;;;;5056008;28;20031;-79
2022/08/06 07:04:53;;;;;;;11.15;6.55;;;23.40;86.70;;;;;;5055644;28;20224;-80
2022/08/06 07:07:21;;;;;;;10.25;6.03;;;23.40;87.40;;;;;;5056124;28;20552;-84
2022/08/06 07:09:49;;;;;;;10.90;6.35;;;23.50;87.00;;;;;;5060980;28;20035;-81
2022/08/06 07:12:18;;;;;;;11.07;6.15;;;23.70;86.10;;;;;;5061732;28;20234;-80
2022/08/06 07:14:45;;;;;;;11.27;6.28;;;23.80;84.90;;;;;;5061372;28;20368;-80
2022/08/06 07:17:12;;;;;;;10.13;6.00;;;23.90;84.90;;;;;;5061487;28;20495;-82
2022/08/06 07:19:38;;;;;;;11.07;6.57;;;24.10;83.70;;;;;;5061570;28;20301;-82
2022/08/06 07:22:05;;;;;;;10.18;6.07;;;23.90;84.20;;;;;;5061225;28;20021;-81
2022/08/06 07:24:36;;;;;;;8.82;5.18;;;24.30;83.80;;;;;;5061401;28;20027;-80
2022/08/06 07:27:03;;;;;;;9.73;6.50;;;24.40;83.10;;;;;;5061374;28;20032;-79
2022/08/06 07:29:30;;;;;;;11.43;5.95;;;24.50;82.50;;;;;;5061086;28;20064;-82
2022/08/06 07:31:58;;;;;;;8.90;5.25;;;24.50;81.80;;;;;;5061622;28;20017;-81
2022/08/06 07:34:25;;;;;;;8.30;5.70;;;24.70;81.50;;;;;;5060814;28;20514;-82
2022/08/06 07:36:53;;;;;;;9.43;5.57;;;24.80;81.40;;;;;;5060972;28;20023;-82
2022/08/06 07:39:32;;;;;;;10.65;5.78;;;24.90;80.10;;;;;;5061504;28;20029;-80
2022/08/06 07:42:01;;;;;;;10.40;6.00;;;25.10;79.50;;;;;;5061223;28;20070;-81
2022/08/06 07:44:29;;;;;;;10.40;5.85;;;25.20;79.70;;;;;;5061160;28;20502;-81
2022/08/06 07:46:58;;;;;;;9.88;6.22;;;25.40;79.10;;;;;;5060608;28;20331;-82
2022/08/06 07:49:32;;;;;;;9.98;6.03;;;25.60;78.50;;;;;;5060768;28;20129;-81
2022/08/06 07:51:58;;;;;;;9.25;5.38;;;25.70;76.30;;;;;;5060923;28;20073;-82
2022/08/06 07:54:30;;;;;;;9.43;5.35;;;25.30;74.80;;;;;;5059245;28;20671;-83
2022/08/06 07:56:57;;;;;;;10.90;5.65;;;25.90;77.10;;;;;;5060438;28;20045;-82
2022/08/06 07:59:24;;;;;;;12.25;5.90;;;26.40;76.00;;;;;;5060522;28;20029;-82
2022/08/06 08:01:52;;;;;;;9.93;6.55;;;26.30;74.90;;;;;;5060745;28;20017;-81
2022/08/06 08:07:05;;;;;;;9.98;6.15;;;26.40;74.60;;;;;;5060274;28;20048;-82
2022/08/06 08:09:33;;;;;;;15.00;6.60;;;26.50;75.00;;;;;;5058624;28;20029;-81
2022/08/06 08:12:06;;;;;;;10.52;6.60;;;26.30;75.20;;;;;;5058600;28;20020;-81
2022/08/06 08:14:33;;;;;;;10.80;6.55;;;26.50;74.60;;;;;;5060613;28;20048;-81
2022/08/06 08:16:59;;;;;;;10.13;6.65;;;26.60;74.90;;;;;;5058522;28;20259;-83
2022/08/06 08:19:32;;;;;;;9.57;5.53;;;26.70;74.50;;;;;;5060151;28;20024;-83
2022/08/06 08:21:59;;;;;;;;;;;26.80;73.30;;;;;;5060722;28;20653;-82
2022/08/06 08:24:26;;;;;;;10.13;6.32;;;27.40;73.70;;;;;;5058722;28;20485;-81
2022/08/06 08:26:53;;;;;;;11.43;6.47;;;27.10;72.70;;;;;;5059895;28;20048;-83
2022/08/06 08:29:19;;;;;;;12.93;6.63;;;27.20;72.20;;;;;;5060074;28;20032;-83
2022/08/06 08:31:45;;;;;;;11.38;6.60;;;27.40;72.20;;;;;;5060647;28;20044;-82
2022/08/06 08:34:11;;;;;;;9.57;6.07;;;27.30;71.20;;;;;;5060364;28;20695;-82
2022/08/06 08:36:38;;;;;;;9.55;6.32;;;27.50;71.40;;;;;;5060394;28;20044;-82
2022/08/06 08:39:07;;;;;;;11.68;7.25;;;27.70;70.70;;;;;;5060676;28;20095;-82
2022/08/06 08:42:01;;;;;;;9.48;5.97;;;27.80;71.20;;;;;;5060246;28;20031;-82
2022/08/06 08:44:28;;;;;;;9.40;6.22;;;28.00;70.60;;;;;;4997269;28;20057;-81
2022/08/06 08:46:59;;;;;;;9.85;6.38;;;28.10;70.10;;;;;;4997153;28;20208;-82
2022/08/06 08:49:47;;;;;;;14.60;7.65;;;28.40;69.80;;;;;;4997241;28;20061;-80
2022/08/06 08:52:16;;;;;;;11.73;6.50;;;28.60;68.80;;;;;;4997138;28;20038;-82
2022/08/06 08:54:46;;;;;;;13.27;7.88;;;28.60;69.10;;;;;;4980471;28;20460;-81
2022/08/06 08:57:13;;;;;;;12.18;6.72;;;28.70;68.40;;;;;;4980706;28;20528;-80
2022/08/06 08:59:41;;;;;;;9.60;6.32;;;28.90;68.20;;;;;;4997185;28;20030;-81
2022/08/06 09:02:11;;;;;;;12.15;6.80;;;29.00;67.30;;;;;;4997213;28;20113;-80
2022/08/06 09:04:37;;;;;;;10.13;6.35;;;29.20;66.50;;;;;;4996870;28;20448;-81
2022/08/06 09:07:03;;;;;;;10.95;6.70;;;29.30;66.30;;;;;;4996833;28;20034;-81
2022/08/06 09:09:32;;;;;;;9.63;6.55;;;29.50;66.20;;;;;;4996848;28;20057;-81
2022/08/06 09:11:58;;;;;;;11.60;6.40;;;29.40;65.30;;;;;;4996854;28;20030;-80
2022/08/06 09:14:24;;;;;;;10.63;6.43;;;29.50;65.60;;;;;;4996745;28;20460;-80
2022/08/06 09:16:50;;;;;;;10.25;6.53;;;29.40;65.00;;;;;;4996805;28;20030;-82
2022/08/06 09:19:16;;;;;;;9.40;5.97;;;29.60;64.80;;;;;;4999494;28;20096;-81
2022/08/06 09:21:42;;;;;;;11.95;6.07;;;26.90;63.90;;;;;;5038262;28;20529;-81
2022/08/06 09:24:09;;;;;;;11.57;6.65;;;29.80;64.90;;;;;;5065893;28;20219;-80
2022/08/06 09:26:35;;;;;;;10.93;6.40;;;29.80;65.00;;;;;;5068356;28;20236;-83
2022/08/06 09:29:00;;;;;;;10.30;6.80;;;29.90;64.40;;;;;;5061986;28;20511;-81
2022/08/06 09:31:27;;;;;;;15.68;6.38;;;;;;;;;;5058762;28;20024;-82
2022/08/06 09:34:02;;;;;;;10.73;6.55;;;30.40;62.90;;;;;;5059940;28;20043;-80
2022/08/06 09:36:39;;;;;;;11.10;6.18;;;30.50;62.80;;;;;;5059592;28;20024;-81
2022/08/06 09:39:05;;;;;;;10.80;6.07;;;30.70;62.10;;;;;;5059394;28;20099;-83
2022/08/06 09:41:31;;;;;;;11.45;6.10;;;30.00;61.30;;;;;;5059105;28;20108;-82
2022/08/06 09:43:58;;;;;;;10.95;5.35;;;31.30;61.00;;;;;;5058993;28;20390;-82
2022/08/06 09:46:47;;;;;;;10.07;5.88;;;31.20;58.80;;;;;;5059066;28;20198;-82
2022/08/06 09:49:15;;;;;;;8.50;5.22;;;31.10;59.00;;;;;;5058456;28;20058;-82
2022/08/06 09:51:42;;;;;;;8.05;5.57;;;31.40;59.10;;;;;;5057597;28;20374;-83
2022/08/06 09:54:12;;;;;;;8.73;5.35;;;31.50;59.00;;;;;;5058722;28;20208;-81
2022/08/06 09:56:39;;;;;;;8.63;5.30;;;31.50;56.70;;;;;;5058573;28;20074;-80
2022/08/06 09:59:06;;;;;;;7.80;4.18;;;31.50;57.00;;;;;;5058772;28;20025;-81
2022/08/06 10:01:44;;;;;;;7.57;3.40;;;31.90;54.00;;;;;;5058969;28;20505;-83
2022/08/06 10:04:24;;;;;;;8.57;3.95;;;32.40;51.80;;;;;;5058590;28;20502;-81
2022/08/06 10:06:58;;;;;;;6.40;2.90;;;32.90;50.00;;;;;;5058657;28;20429;-82
2022/08/06 10:09:26;;;;;;;6.13;2.80;;;33.20;47.60;;;;;;5058569;28;20496;-82
2022/08/06 10:11:52;;;;;;;5.47;2.78;;;33.40;46.90;;;;;;5058633;28;20237;-80
2022/08/06 10:14:33;;;;;;;7.25;2.90;;;33.10;47.80;;;;;;5058583;28;20097;-82
2022/08/06 10:17:18;;;;;;;6.75;3.35;;;33.70;47.50;;;;;;5058480;28;20104;-83
2022/08/06 10:20:07;;;;;;;6.30;2.85;;;33.00;47.00;;;;;;5058241;28;20138;-83
2022/08/06 10:22:33;;;;;;;7.15;2.55;;;33.40;46.10;;;;;;5058568;28;20027;-80
2022/08/06 10:25:01;;;;;;;4.32;2.50;;;33.40;46.40;;;;;;5058910;28;20104;-80
2022/08/06 10:27:35;;;;;;;5.22;2.58;;;33.50;46.20;;;;;;5057650;28;20043;-80
2022/08/06 10:30:09;;;;;;;5.38;2.70;;;33.70;45.80;;;;;;5057595;28;20432;-80
2022/08/06 10:32:50;;;;;;;6.45;2.58;;;34.00;46.00;;;;;;5059020;28;20340;-80
2022/08/06 10:35:18;;;;;;;6.40;2.80;;;34.20;45.40;;;;;;5059421;28;20051;-80
2022/08/06 10:37:47;;;;;;;7.35;3.05;;;34.60;45.20;;;;;;5059349;28;20229;-81
2022/08/06 10:40:15;;;;;;;5.80;2.90;;;34.80;45.40;;;;;;5059448;28;20086;-80
2022/08/06 10:42:41;;;;;;;5.10;2.45;;;34.80;43.70;;;;;;5059164;28;20024;-82
2022/08/06 10:45:11;;;;;;;6.53;2.85;;;34.60;41.80;;;;;;5059774;28;20025;-82
2022/08/06 10:47:41;;;;;;;5.43;2.90;;;34.40;43.00;;;;;;5058045;28;20422;-81
2022/08/06 10:50:09;;;;;;;7.80;3.53;;;34.50;43.70;;;;;;5059348;28;20090;-80
2022/08/06 10:52:36;;;;;;;5.70;2.58;;;34.80;43.30;;;;;;5057970;28;20495;-80
2022/08/06 10:55:04;;;;;;;6.80;2.85;;;34.90;43.30;;;;;;5058311;28;20406;-81
2022/08/06 10:57:32;;;;;;;5.63;2.70;;;35.00;42.70;;;;;;5059974;28;20089;-82
2022/08/06 11:00:00;;;;;;;7.40;2.95;;;35.00;43.10;;;;;;5060454;28;20048;-82
2022/08/06 11:02:53;;;;;;;3.47;2.00;;;35.20;43.20;;;;;;5076232;28;20025;-81
2022/08/06 11:05:28;;;;;;;6.00;3.00;;;35.50;41.70;;;;;;5078981;28;20056;-82
2022/08/06 11:07:59;;;;;;;5.88;2.80;;;35.50;41.00;;;;;;5078334;28;20472;-82
2022/08/06 11:10:46;;;;;;;6.80;3.53;;;35.80;40.70;;;;;;5075444;28;20028;-82
2022/08/06 11:13:23;;;;;;;5.28;2.92;;;35.80;41.20;;;;;;5063755;28;20595;-82
2022/08/06 11:15:50;;;;;;;5.80;2.47;;;35.90;41.70;;;;;;5061159;28;20040;-80
2022/08/06 11:18:18;;;;;;;4.20;2.30;;;36.10;40.90;;;;;;5060958;28;20024;-79
2022/08/06 11:20:46;;;;;;;5.85;3.20;;;36.30;41.50;;;;;;5062379;28;20315;-79
2022/08/06 11:23:12;;;;;;;5.78;2.80;;;36.50;39.80;;;;;;5059909;28;20028;-79
2022/08/06 11:25:58;;;;;;;14.23;5.95;;;36.40;39.40;;;;;;5059838;28;20041;-82
2022/08/06 11:28:32;;;;;;;14.65;5.47;;;36.40;40.20;;;;;;5059326;28;20602;-81
2022/08/06 11:31:01;;;;;;;5.72;2.70;;;36.20;40.10;;;;;;5058579;28;20025;-82
2022/08/06 11:33:32;;;;;;;6.95;3.47;;;36.80;40.20;;;;;;5057558;28;20266;-81
2022/08/06 11:36:00;;;;;;;7.28;3.15;;;37.00;40.00;;;;;;5057588;28;20503;-82
2022/08/06 11:38:47;;;;;;;6.45;2.67;;;37.00;38.70;;;;;;5057969;28;20328;-80
2022/08/06 11:41:24;;;;;;;4.30;2.40;;;38.80;39.50;;;;;;5057309;28;20089;-81
2022/08/06 11:43:52;;;;;;;4.40;2.42;;;37.20;38.10;;;;;;5055745;28;20374;-81
2022/08/06 11:46:29;;;;;;;4.38;2.50;;;37.10;38.10;;;;;;5056840;28;20029;-82
2022/08/06 11:49:04;;;;;;;6.25;2.80;;;37.20;38.20;;;;;;5055410;28;20400;-80
2022/08/06 11:51:55;;;;;;;4.55;2.60;;;37.60;38.70;;;;;;5057400;28;20323;-80
2022/08/06 11:54:43;;;;;;;5.65;2.88;;;37.80;38.40;;;;;;5057543;28;20116;-80
2022/08/06 11:57:14;;;;;;;5.88;2.63;;;38.00;38.80;;;;;;5060497;28;20082;-80
2022/08/06 11:59:55;;;;;;;5.18;2.70;;;38.30;38.00;;;;;;5060377;28;20094;-80
2022/08/06 12:02:43;;;;;;;6.47;2.28;;;38.30;39.00;;;;;;5059111;28;20056;-81
2022/08/06 12:05:15;;;;;;;6.28;2.90;;;38.40;38.30;;;;;;5059020;28;20641;-81
2022/08/06 12:07:49;;;;;;;4.63;2.72;;;38.60;38.10;;;;;;5058770;28;20021;-81
2022/08/06 12:10:16;;;;;;;5.05;2.47;;;38.70;37.20;;;;;;5059055;28;20056;-80
2022/08/06 12:12:45;;;;;;;6.07;3.65;;;38.50;37.80;;;;;;5060064;28;20487;-80
2022/08/06 12:15:19;;;;;;;6.35;2.88;;;38.20;38.10;;;;;;5060569;28;20032;-81
2022/08/06 12:17:54;;;;;;;7.13;3.90;;;38.30;37.30;;;;;;5060545;28;20021;-80
2022/08/06 12:20:44;;;;;;;5.03;2.70;;;38.10;38.50;;;;;;5060367;28;20017;-82
2022/08/06 12:23:32;;;;;;;5.80;3.40;;;37.70;38.20;;;;;;5059038;28;20198;-81
2022/08/06 12:25:58;;;;;;;5.68;3.00;;;37.30;38.70;;;;;;5060154;28;20214;-81
2022/08/06 12:28:24;;;;;;;4.80;2.72;;;37.40;39.70;;;;;;5060971;28;20086;-80
2022/08/06 12:30:53;;;;;;;6.90;3.53;;;37.10;37.30;;;;;;5060821;28;20036;-79
2022/08/06 12:33:21;;;;;;;6.32;3.30;;;37.10;38.20;;;;;;5060722;28;20112;-80
2022/08/06 12:35:58;;;;;;;5.68;3.03;;;37.70;38.20;;;;;;5060123;28;20336;-81
2022/08/06 12:38:27;;;;;;;5.15;3.00;;;38.40;37.30;;;;;;5060428;28;20025;-80
2022/08/06 12:41:08;;;;;;;5.95;3.45;;;39.00;37.60;;;;;;5059866;28;20017;-81
2022/08/06 12:43:35;;;;;;;5.50;2.88;;;39.80;36.90;;;;;;5060466;28;20170;-80
2022/08/06 12:46:04;;;;;;;4.93;2.72;;;40.20;36.20;;;;;;5059821;28;20029;-81
2022/08/06 12:48:32;;;;;;;5.75;2.88;;;40.20;36.50;;;;;;5059830;28;20125;-81
2022/08/06 12:51:08;;;;;;;5.35;3.00;;;40.00;36.20;;;;;;5060053;28;20197;-81
2022/08/06 12:53:39;;;;;;;6.05;3.15;;;39.90;36.20;;;;;;5059478;28;20073;-80
2022/08/06 12:56:05;;;;;;;7.95;4.10;;;39.90;36.20;;;;;;5059400;28;20431;-80
2022/08/06 12:58:35;;;;;;;11.15;4.88;;;40.20;35.60;;;;;;5057900;28;20021;-82
2022/08/06 13:01:02;;;;;;;6.32;3.03;;;40.60;36.90;;;;;;5059519;28;20025;-80
2022/08/06 13:03:31;;;;;;;7.45;3.60;;;40.40;36.00;;;;;;5059388;28;20656;-80
2022/08/06 13:06:00;;;;;;;6.60;3.45;;;39.80;35.70;;;;;;5056546;28;20157;-80
2022/08/06 13:08:27;;;;;;;5.65;3.13;;;39.10;36.40;;;;;;5059385;28;20109;-80